sensor_id;sensor_type;location;lat;lon;timestamp;pressure;altitude;pressure_sealevel;temperature;humidity
51321;BME280;38732;49.556;6.286;2023-03-21T00:01:11;99873.28;;;11.45;82.76
51321;BME280;38732;49.556;6.286;2023-03-21T00:03:39;99862.94;;;11.47;83.39
51321;BME280;38732;49.556;6.286;2023-03-21T00:06:10;99861.22;;;11.47;83.78
51321;BME280;38732;49.556;6.286;2023-03-21T00:08:39;99863.78;;;11.42;83.31
51321;BME280;38732;49.556;6.286;2023-03-21T00:11:12;99859.47;;;11.43;82.18
51321;BME280;38732;49.556;6.286;2023-03-21T00:13:41;99863.81;;;11.49;82.68
51321;BME280;38732;49.556;6.286;2023-03-21T00:16:15;99861.25;;;11.53;82.69
51321;BME280;38732;49.556;6.286;2023-03-21T00:18:45;99862.13;;;11.54;82.57
51321;BME280;38732;49.556;6.286;2023-03-21T00:21:16;99863.84;;;11.53;83.18
51321;BME280;38732;49.556;6.286;2023-03-21T00:23:45;99861.25;;;11.52;83.66
51321;BME280;38732;49.556;6.286;2023-03-21T00:26:14;99848.31;;;11.49;83.63
51321;BME280;38732;49.556;6.286;2023-03-21T00:28:42;99853.50;;;11.53;83.55
51321;BME280;38732;49.556;6.286;2023-03-21T00:31:11;99850.03;;;11.57;83.37
51321;BME280;38732;49.556;6.286;2023-03-21T00:33:39;99851.75;;;11.57;83.04
51321;BME280;38732;49.556;6.286;2023-03-21T00:36:08;99837.97;;;11.55;82.74
51321;BME280;38732;49.556;6.286;2023-03-21T00:38:38;99837.09;;;11.57;82.45
51321;BME280;38732;49.556;6.286;2023-03-21T00:41:08;99845.72;;;11.55;82.78
51321;BME280;38732;49.556;6.286;2023-03-21T00:43:37;99837.13;;;11.65;84.12
51321;BME280;38732;49.556;6.286;2023-03-21T00:46:05;99826.78;;;11.63;83.32
51321;BME280;38732;49.556;6.286;2023-03-21T00:48:33;99825.91;;;11.68;82.14
51321;BME280;38732;49.556;6.286;2023-03-21T00:51:11;99825.06;;;11.70;81.51
51321;BME280;38732;49.556;6.286;2023-03-21T00:53:41;99821.59;;;11.70;81.09
51321;BME280;38732;49.556;6.286;2023-03-21T00:56:09;99817.28;;;11.67;81.58
51321;BME280;38732;49.556;6.286;2023-03-21T00:58:37;99818.13;;;11.63;82.88
51321;BME280;38732;49.556;6.286;2023-03-21T01:01:06;99825.03;;;11.65;82.00
51321;BME280;38732;49.556;6.286;2023-03-21T01:03:34;99812.13;;;11.61;82.05
51321;BME280;38732;49.556;6.286;2023-03-21T01:06:02;99817.31;;;11.61;83.55
51321;BME280;38732;49.556;6.286;2023-03-21T01:08:36;99813.84;;;11.51;82.66
51321;BME280;38732;49.556;6.286;2023-03-21T01:11:08;99809.53;;;11.59;81.58
51321;BME280;38732;49.556;6.286;2023-03-21T01:13:37;99809.53;;;11.65;82.14
51321;BME280;38732;49.556;6.286;2023-03-21T01:16:07;99808.69;;;11.59;81.49
51321;BME280;38732;49.556;6.286;2023-03-21T01:18:37;99806.94;;;11.65;83.32
51321;BME280;38732;49.556;6.286;2023-03-21T01:21:10;99804.38;;;11.64;81.11
51321;BME280;38732;49.556;6.286;2023-03-21T01:23:41;99806.97;;;11.69;81.55
51321;BME280;38732;49.556;6.286;2023-03-21T01:26:10;99799.19;;;11.67;81.43
51321;BME280;38732;49.556;6.286;2023-03-21T01:28:40;99799.19;;;11.62;82.14
51321;BME280;38732;49.556;6.286;2023-03-21T01:31:12;99796.59;;;11.59;81.81
51321;BME280;38732;49.556;6.286;2023-03-21T01:33:41;99794.88;;;11.57;82.66
51321;BME280;38732;49.556;6.286;2023-03-21T01:36:18;99793.13;;;11.53;83.01
51321;BME280;38732;49.556;6.286;2023-03-21T01:38:47;99790.56;;;11.57;82.36
51321;BME280;38732;49.556;6.286;2023-03-21T01:41:30;99787.09;;;11.52;82.65
51321;BME280;38732;49.556;6.286;2023-03-21T01:43:59;99777.63;;;11.43;82.35
51321;BME280;38732;49.556;6.286;2023-03-21T01:46:33;99776.75;;;11.44;83.44
51321;BME280;38732;49.556;6.286;2023-03-21T01:49:06;99772.44;;;11.43;84.10
51321;BME280;38732;49.556;6.286;2023-03-21T01:51:40;99777.59;;;11.40;83.30
51321;BME280;38732;49.556;6.286;2023-03-21T01:54:15;99774.16;;;11.43;84.06
51321;BME280;38732;49.556;6.286;2023-03-21T01:56:45;99773.28;;;11.30;83.39
51321;BME280;38732;49.556;6.286;2023-03-21T01:59:20;99770.69;;;11.29;82.91
51321;BME280;38732;49.556;6.286;2023-03-21T02:01:51;99768.00;;;10.89;86.28
51321;BME280;38732;49.556;6.286;2023-03-21T02:04:20;99768.09;;;11.13;84.24
51321;BME280;38732;49.556;6.286;2023-03-21T02:06:52;99756.88;;;11.20;84.66
51321;BME280;38732;49.556;6.286;2023-03-21T02:09:25;99750.88;;;11.25;84.90
51321;BME280;38732;49.556;6.286;2023-03-21T02:11:55;99754.31;;;11.28;84.86
51321;BME280;38732;49.556;6.286;2023-03-21T02:14:23;99754.31;;;11.27;84.55
51321;BME280;38732;49.556;6.286;2023-03-21T02:17:04;99751.72;;;11.14;83.53
51321;BME280;38732;49.556;6.286;2023-03-21T02:27:55;99736.19;;;11.02;85.31
51321;BME280;38732;49.556;6.286;2023-03-21T02:30:40;99725.84;;;11.10;85.06
51321;BME280;38732;49.556;6.286;2023-03-21T02:33:41;99719.00;;;11.13;84.54
51321;BME280;38732;49.556;6.286;2023-03-21T02:36:16;99721.56;;;11.13;85.62
51321;BME280;38732;49.556;6.286;2023-03-21T02:39:09;99714.66;;;11.23;85.65
51321;BME280;38732;49.556;6.286;2023-03-21T02:41:53;99709.50;;;11.28;85.31
51321;BME280;38732;49.556;6.286;2023-03-21T02:44:34;99712.94;;;11.25;85.82
51321;BME280;38732;49.556;6.286;2023-03-21T02:50:09;99712.09;;;11.09;85.43
51321;BME280;38732;49.556;6.286;2023-03-21T02:52:43;99712.09;;;11.14;84.41
51321;BME280;38732;49.556;6.286;2023-03-21T02:55:18;99700.03;;;11.22;86.68
51321;BME280;38732;49.556;6.286;2023-03-21T02:57:49;99699.16;;;11.28;85.33
51321;BME280;38732;49.556;6.286;2023-03-21T03:00:22;99694.00;;;11.28;85.28
51321;BME280;38732;49.556;6.286;2023-03-21T03:02:51;99689.72;;;11.31;85.28
51321;BME280;38732;49.556;6.286;2023-03-21T03:05:25;99688.84;;;11.28;84.99
51321;BME280;38732;49.556;6.286;2023-03-21T03:11:05;99693.16;;;11.29;84.95
51321;BME280;38732;49.556;6.286;2023-03-21T03:19:13;99691.41;;;11.43;82.70
51321;BME280;38732;49.556;6.286;2023-03-21T03:21:49;99699.19;;;11.44;82.71
51321;BME280;38732;49.556;6.286;2023-03-21T03:24:43;99692.31;;;11.47;82.86
51321;BME280;38732;49.556;6.286;2023-03-21T03:27:16;99688.84;;;11.41;82.93
51321;BME280;38732;49.556;6.286;2023-03-21T03:29:47;99688.84;;;11.40;83.58
51321;BME280;38732;49.556;6.286;2023-03-21T03:32:20;99700.91;;;11.39;85.35
51321;BME280;38732;49.556;6.286;2023-03-21T03:34:52;99695.72;;;11.45;82.76
51321;BME280;38732;49.556;6.286;2023-03-21T03:37:23;99690.56;;;11.44;82.45
51321;BME280;38732;49.556;6.286;2023-03-21T03:40:03;99689.69;;;11.40;83.30
51321;BME280;38732;49.556;6.286;2023-03-21T03:42:48;99685.38;;;11.42;83.60
51321;BME280;38732;49.556;6.286;2023-03-21T03:45:19;99681.09;;;11.32;83.66
51321;BME280;38732;49.556;6.286;2023-03-21T03:47:57;99681.94;;;11.34;83.50
51321;BME280;38732;49.556;6.286;2023-03-21T03:50:43;99680.25;;;11.33;83.99
51321;BME280;38732;49.556;6.286;2023-03-21T03:53:27;99681.94;;;11.33;83.79
51321;BME280;38732;49.556;6.286;2023-03-21T03:56:00;99688.84;;;11.34;85.09
51321;BME280;38732;49.556;6.286;2023-03-21T03:58:28;99681.97;;;11.36;84.33
51321;BME280;38732;49.556;6.286;2023-03-21T04:00:57;99685.41;;;11.32;83.11
51321;BME280;38732;49.556;6.286;2023-03-21T04:03:25;99680.22;;;11.29;83.05
51321;BME280;38732;49.556;6.286;2023-03-21T04:05:53;99681.09;;;11.21;84.16
51321;BME280;38732;49.556;6.286;2023-03-21T04:08:21;99678.50;;;11.25;84.01
51321;BME280;38732;49.556;6.286;2023-03-21T04:10:49;99675.06;;;11.24;82.24
51321;BME280;38732;49.556;6.286;2023-03-21T04:13:18;99677.66;;;11.21;85.14
51321;BME280;38732;49.556;6.286;2023-03-21T04:15:46;99679.38;;;11.16;83.94
51321;BME280;38732;49.556;6.286;2023-03-21T04:18:14;99677.63;;;11.18;84.50
51321;BME280;38732;49.556;6.286;2023-03-21T04:20:42;99687.13;;;11.19;84.16
51321;BME280;38732;49.556;6.286;2023-03-21T04:23:10;99677.66;;;11.13;84.13
51321;BME280;38732;49.556;6.286;2023-03-21T04:25:39;99675.03;;;11.04;85.43
51321;BME280;38732;49.556;6.286;2023-03-21T04:28:07;99676.75;;;11.13;84.43
51321;BME280;38732;49.556;6.286;2023-03-21T04:30:35;99674.19;;;11.16;85.89
51321;BME280;38732;49.556;6.286;2023-03-21T04:33:04;99684.50;;;11.07;85.22
51321;BME280;38732;49.556;6.286;2023-03-21T04:35:32;99680.22;;;11.13;84.55
51321;BME280;38732;49.556;6.286;2023-03-21T04:38:00;99679.34;;;11.13;85.18
51321;BME280;38732;49.556;6.286;2023-03-21T04:40:29;99678.50;;;11.21;85.18
51321;BME280;38732;49.556;6.286;2023-03-21T04:42:57;99675.06;;;11.16;83.95
51321;BME280;38732;49.556;6.286;2023-03-21T04:45:25;99679.34;;;11.07;84.62
51321;BME280;38732;49.556;6.286;2023-03-21T04:47:53;99681.06;;;11.09;84.71
51321;BME280;38732;49.556;6.286;2023-03-21T04:50:22;99681.06;;;11.01;85.91
51321;BME280;38732;49.556;6.286;2023-03-21T04:52:50;99679.31;;;11.08;86.43
51321;BME280;38732;49.556;6.286;2023-03-21T04:55:18;99682.78;;;11.18;86.17
51321;BME280;38732;49.556;6.286;2023-03-21T04:57:47;99682.78;;;11.04;86.46
51321;BME280;38732;49.556;6.286;2023-03-21T05:00:15;99685.38;;;11.12;86.24
51321;BME280;38732;49.556;6.286;2023-03-21T05:02:43;99684.53;;;11.11;86.74
51321;BME280;38732;49.556;6.286;2023-03-21T05:05:12;99681.06;;;11.12;86.24
51321;BME280;38732;49.556;6.286;2023-03-21T05:07:40;99680.22;;;11.15;85.89
51321;BME280;38732;49.556;6.286;2023-03-21T05:10:10;99680.22;;;11.19;85.53
51321;BME280;38732;49.556;6.286;2023-03-21T05:12:39;99679.34;;;11.22;84.82
51321;BME280;38732;49.556;6.286;2023-03-21T05:15:08;99676.78;;;11.22;83.31
51321;BME280;38732;49.556;6.286;2023-03-21T05:17:36;99678.50;;;11.17;82.82
51321;BME280;38732;49.556;6.286;2023-03-21T05:20:05;99682.81;;;11.27;80.86
51321;BME280;38732;49.556;6.286;2023-03-21T05:22:33;99681.06;;;11.28;78.53
51321;BME280;38732;49.556;6.286;2023-03-21T05:25:01;99678.50;;;11.32;79.07
51321;BME280;38732;49.556;6.286;2023-03-21T05:27:29;99675.94;;;11.26;79.00
51321;BME280;38732;49.556;6.286;2023-03-21T05:29:57;99671.59;;;11.30;79.22
51321;BME280;38732;49.556;6.286;2023-03-21T05:32:26;99673.31;;;11.28;78.25
51321;BME280;38732;49.556;6.286;2023-03-21T05:34:54;99678.53;;;11.31;79.98
51321;BME280;38732;49.556;6.286;2023-03-21T05:37:23;99677.66;;;11.41;79.19
51321;BME280;38732;49.556;6.286;2023-03-21T05:39:51;99675.94;;;11.38;80.47
51321;BME280;38732;49.556;6.286;2023-03-21T05:42:19;99674.19;;;11.37;77.86
51321;BME280;38732;49.556;6.286;2023-03-21T05:44:48;99680.22;;;11.39;79.12
51321;BME280;38732;49.556;6.286;2023-03-21T05:47:17;99675.91;;;11.40;78.01
51321;BME280;38732;49.556;6.286;2023-03-21T05:49:45;99678.50;;;11.41;76.27
51321;BME280;38732;49.556;6.286;2023-03-21T05:52:13;99687.13;;;11.42;78.28
51321;BME280;38732;49.556;6.286;2023-03-21T05:54:41;99683.69;;;11.46;77.74
51321;BME280;38732;49.556;6.286;2023-03-21T05:57:10;99686.25;;;11.44;77.54
51321;BME280;38732;49.556;6.286;2023-03-21T05:59:38;99686.25;;;11.44;77.17
51321;BME280;38732;49.556;6.286;2023-03-21T06:02:06;99691.44;;;11.44;78.73
51321;BME280;38732;49.556;6.286;2023-03-21T06:04:34;99687.09;;;11.48;80.25
51321;BME280;38732;49.556;6.286;2023-03-21T06:07:03;99690.56;;;11.50;76.81
51321;BME280;38732;49.556;6.286;2023-03-21T06:09:31;99688.84;;;11.51;76.69
51321;BME280;38732;49.556;6.286;2023-03-21T06:11:59;99694.88;;;11.50;76.52
51321;BME280;38732;49.556;6.286;2023-03-21T06:14:27;99694.03;;;11.49;76.71
51321;BME280;38732;49.556;6.286;2023-03-21T06:16:56;99691.41;;;11.48;78.32
51321;BME280;38732;49.556;6.286;2023-03-21T06:19:24;99694.88;;;11.48;79.17
51321;BME280;38732;49.556;6.286;2023-03-21T06:21:52;99691.41;;;11.48;77.69
51321;BME280;38732;49.556;6.286;2023-03-21T06:24:20;99691.44;;;11.54;76.26
51321;BME280;38732;49.556;6.286;2023-03-21T06:26:48;99696.59;;;11.52;74.92
51321;BME280;38732;49.556;6.286;2023-03-21T06:29:17;99690.56;;;11.52;76.86
51321;BME280;38732;49.556;6.286;2023-03-21T06:31:45;99689.69;;;11.48;75.85
51321;BME280;38732;49.556;6.286;2023-03-21T06:34:13;99683.69;;;11.51;75.45
51321;BME280;38732;49.556;6.286;2023-03-21T06:36:41;99686.25;;;11.57;76.65
51321;BME280;38732;49.556;6.286;2023-03-21T06:39:09;99688.84;;;11.61;76.97
51321;BME280;38732;49.556;6.286;2023-03-21T06:41:38;99679.34;;;11.65;78.61
51321;BME280;38732;49.556;6.286;2023-03-21T06:44:06;99675.91;;;11.68;79.25
51321;BME280;38732;49.556;6.286;2023-03-21T06:46:34;99671.56;;;11.68;77.58
51321;BME280;38732;49.556;6.286;2023-03-21T06:49:03;99675.03;;;11.73;78.13
51321;BME280;38732;49.556;6.286;2023-03-21T06:51:31;99676.75;;;11.70;77.31
51321;BME280;38732;49.556;6.286;2023-03-21T06:53:59;99676.78;;;11.76;78.68
51321;BME280;38732;49.556;6.286;2023-03-21T06:56:27;99672.41;;;11.82;78.18
51321;BME280;38732;49.556;6.286;2023-03-21T06:58:55;99686.22;;;11.84;78.44
51321;BME280;38732;49.556;6.286;2023-03-21T07:01:24;99685.38;;;11.90;77.52
51321;BME280;38732;49.556;6.286;2023-03-21T07:03:53;99683.66;;;11.89;75.49
51321;BME280;38732;49.556;6.286;2023-03-21T07:06:21;99681.91;;;11.85;75.18
51321;BME280;38732;49.556;6.286;2023-03-21T07:08:50;99686.25;;;11.89;77.60
51321;BME280;38732;49.556;6.286;2023-03-21T07:11:18;99687.97;;;11.95;73.80
51321;BME280;38732;49.556;6.286;2023-03-21T07:13:47;99687.09;;;11.99;75.09
51321;BME280;38732;49.556;6.286;2023-03-21T07:16:17;99686.22;;;12.03;73.54
51321;BME280;38732;49.556;6.286;2023-03-21T07:18:46;99685.38;;;11.96;75.04
51321;BME280;38732;49.556;6.286;2023-03-21T07:21:14;99690.56;;;12.01;74.18
51321;BME280;38732;49.556;6.286;2023-03-21T07:23:42;99687.06;;;12.13;74.12
51321;BME280;38732;49.556;6.286;2023-03-21T07:26:11;99692.28;;;12.03;74.80
51321;BME280;38732;49.556;6.286;2023-03-21T07:28:39;99686.19;;;12.07;73.91
51321;BME280;38732;49.556;6.286;2023-03-21T07:31:07;99690.53;;;12.07;74.93
51321;BME280;38732;49.556;6.286;2023-03-21T07:33:35;99693.94;;;12.17;73.78
51321;BME280;38732;49.556;6.286;2023-03-21T07:36:09;99694.81;;;12.14;75.97
51321;BME280;38732;49.556;6.286;2023-03-21T07:38:38;99695.66;;;12.24;77.34
51321;BME280;38732;49.556;6.286;2023-03-21T07:41:06;99697.38;;;12.25;75.54
51321;BME280;38732;49.556;6.286;2023-03-21T07:43:34;99692.19;;;12.26;74.13
51321;BME280;38732;49.556;6.286;2023-03-21T07:46:03;99687.84;;;12.35;75.50
51321;BME280;38732;49.556;6.286;2023-03-21T07:48:31;99691.28;;;12.35;74.04
51321;BME280;38732;49.556;6.286;2023-03-21T07:51:00;99694.78;;;12.20;74.08
51321;BME280;38732;49.556;6.286;2023-03-21T07:53:28;99692.16;;;12.39;76.00
51321;BME280;38732;49.556;6.286;2023-03-21T07:55:56;99688.69;;;12.44;74.53
51321;BME280;38732;49.556;6.286;2023-03-21T07:58:24;99689.53;;;12.40;70.48
51321;BME280;38732;49.556;6.286;2023-03-21T08:00:53;99695.59;;;12.41;72.35
51321;BME280;38732;49.556;6.286;2023-03-21T08:03:21;99697.28;;;12.45;74.75
51321;BME280;38732;49.556;6.286;2023-03-21T08:05:50;99693.88;;;12.46;76.66
51321;BME280;38732;49.556;6.286;2023-03-21T08:08:18;99698.16;;;12.42;75.20
51321;BME280;38732;49.556;6.286;2023-03-21T08:10:46;99698.13;;;12.50;76.85
51321;BME280;38732;49.556;6.286;2023-03-21T08:13:14;99698.16;;;12.48;73.34
51321;BME280;38732;49.556;6.286;2023-03-21T08:15:42;99692.97;;;12.51;70.64
51321;BME280;38732;49.556;6.286;2023-03-21T08:18:11;99695.56;;;12.51;73.91
51321;BME280;38732;49.556;6.286;2023-03-21T08:20:39;99693.81;;;12.52;72.29
51321;BME280;38732;49.556;6.286;2023-03-21T08:23:07;99695.53;;;12.56;72.59
51321;BME280;38732;49.556;6.286;2023-03-21T08:25:35;99687.75;;;12.55;72.43
51321;BME280;38732;49.556;6.286;2023-03-21T08:28:04;99692.03;;;12.71;75.93
51321;BME280;38732;49.556;6.286;2023-03-21T08:30:32;99688.56;;;12.73;73.95
51321;BME280;38732;49.556;6.286;2023-03-21T08:33:00;99696.31;;;12.78;76.04
51321;BME280;38732;49.556;6.286;2023-03-21T08:35:29;99691.06;;;12.86;77.05
51321;BME280;38732;49.556;6.286;2023-03-21T08:37:58;99692.84;;;12.74;75.68
51321;BME280;38732;49.556;6.286;2023-03-21T08:40:26;99701.50;;;12.78;73.86
51321;BME280;38732;49.556;6.286;2023-03-21T08:42:54;99698.06;;;12.73;73.15
51321;BME280;38732;49.556;6.286;2023-03-21T08:45:23;99692.13;;;12.42;74.08
51321;BME280;38732;49.556;6.286;2023-03-21T08:47:52;99695.50;;;12.64;74.80
51321;BME280;38732;49.556;6.286;2023-03-21T08:50:22;99691.13;;;12.73;73.43
51321;BME280;38732;49.556;6.286;2023-03-21T08:52:51;99697.22;;;12.62;74.64
51321;BME280;38732;49.556;6.286;2023-03-21T08:55:19;99695.41;;;12.84;75.17
51321;BME280;38732;49.556;6.286;2023-03-21T08:57:47;99699.69;;;12.86;73.79
51321;BME280;38732;49.556;6.286;2023-03-21T09:00:16;99687.47;;;13.05;74.31
51321;BME280;38732;49.556;6.286;2023-03-21T09:02:46;99683.97;;;13.14;75.33
51321;BME280;38732;49.556;6.286;2023-03-21T09:05:15;99690.84;;;13.20;71.84
51321;BME280;38732;49.556;6.286;2023-03-21T09:07:44;99690.81;;;13.23;72.17
51321;BME280;38732;49.556;6.286;2023-03-21T09:10:16;99682.13;;;13.36;73.64
51321;BME280;38732;49.556;6.286;2023-03-21T09:12:44;99677.84;;;13.23;74.49
51321;BME280;38732;49.556;6.286;2023-03-21T09:15:13;99682.91;;;13.43;73.27
51321;BME280;38732;49.556;6.286;2023-03-21T09:17:41;99679.53;;;13.36;71.21
51321;BME280;38732;49.556;6.286;2023-03-21T09:20:11;99685.53;;;13.41;70.99
51321;BME280;38732;49.556;6.286;2023-03-21T09:22:39;99682.97;;;13.35;72.17
51321;BME280;38732;49.556;6.286;2023-03-21T09:25:08;99682.03;;;13.47;72.27
51321;BME280;38732;49.556;6.286;2023-03-21T09:27:36;99682.91;;;13.44;70.28
51321;BME280;38732;49.556;6.286;2023-03-21T09:30:05;99682.97;;;13.38;69.89
51321;BME280;38732;49.556;6.286;2023-03-21T09:32:34;99683.72;;;13.51;71.97
51321;BME280;38732;49.556;6.286;2023-03-21T09:35:03;99683.72;;;13.49;71.07
51321;BME280;38732;49.556;6.286;2023-03-21T09:37:32;99676.81;;;13.50;72.57
51321;BME280;38732;49.556;6.286;2023-03-21T09:40:00;99674.06;;;13.65;70.42
51321;BME280;38732;49.556;6.286;2023-03-21T09:45:35;99680.97;;;13.71;69.33
51321;BME280;38732;49.556;6.286;2023-03-21T09:48:05;99683.44;;;13.80;70.69
51321;BME280;38732;49.556;6.286;2023-03-21T09:50:39;99679.19;;;13.76;72.91
51321;BME280;38732;49.556;6.286;2023-03-21T09:53:14;99686.81;;;13.90;69.89
51321;BME280;38732;49.556;6.286;2023-03-21T09:55:45;99695.53;;;13.84;71.31
51321;BME280;38732;49.556;6.286;2023-03-21T09:58:26;99693.00;;;13.78;71.42
51321;BME280;38732;49.556;6.286;2023-03-21T10:03:36;99684.97;;;12.90;77.45
51321;BME280;38732;49.556;6.286;2023-03-21T10:06:10;99683.00;;;13.30;77.98
51321;BME280;38732;49.556;6.286;2023-03-21T10:08:42;99676.06;;;13.38;74.64
51321;BME280;38732;49.556;6.286;2023-03-21T10:11:17;99682.91;;;13.46;76.05
51321;BME280;38732;49.556;6.286;2023-03-21T10:14:10;99672.44;;;13.56;76.46
51321;BME280;38732;49.556;6.286;2023-03-21T10:16:42;99677.59;;;13.61;77.42
51321;BME280;38732;49.556;6.286;2023-03-21T10:19:16;99673.22;;;13.66;76.04
51321;BME280;38732;49.556;6.286;2023-03-21T10:21:47;99683.56;;;13.69;78.37
51321;BME280;38732;49.556;6.286;2023-03-21T10:24:18;99673.16;;;13.72;78.61
51321;BME280;38732;49.556;6.286;2023-03-21T10:26:48;99673.97;;;13.79;77.93
51321;BME280;38732;49.556;6.286;2023-03-21T10:29:18;99674.03;;;13.73;77.49
51321;BME280;38732;49.556;6.286;2023-03-21T10:31:49;99674.84;;;13.78;76.58
51321;BME280;38732;49.556;6.286;2023-03-21T10:34:41;99670.53;;;13.75;78.31
51321;BME280;38732;49.556;6.286;2023-03-21T10:37:12;99667.09;;;13.73;78.15
51321;BME280;38732;49.556;6.286;2023-03-21T10:39:47;99660.94;;;13.84;78.25
51321;BME280;38732;49.556;6.286;2023-03-21T10:42:21;99660.03;;;13.86;76.90
51321;BME280;38732;49.556;6.286;2023-03-21T10:44:53;99649.50;;;14.00;77.00
51321;BME280;38732;49.556;6.286;2023-03-21T10:47:28;99640.81;;;14.02;77.53
51321;BME280;38732;49.556;6.286;2023-03-21T10:50:17;99635.66;;;14.01;76.84
51321;BME280;38732;49.556;6.286;2023-03-21T10:52:49;99634.75;;;14.03;77.73
51321;BME280;38732;49.556;6.286;2023-03-21T10:55:27;99639.91;;;14.08;79.00
51321;BME280;38732;49.556;6.286;2023-03-21T10:58:01;99635.44;;;14.19;77.18
51321;BME280;38732;49.556;6.286;2023-03-21T11:00:34;99618.84;;;14.30;77.65
51321;BME280;38732;49.556;6.286;2023-03-21T11:03:04;99617.00;;;14.39;76.24
51321;BME280;38732;49.556;6.286;2023-03-21T11:05:38;99608.41;;;14.36;77.74
51321;BME280;38732;49.556;6.286;2023-03-21T11:08:17;99599.03;;;14.24;77.17
51321;BME280;38732;49.556;6.286;2023-03-21T11:13:41;99601.50;;;14.32;77.83
51321;BME280;38732;49.556;6.286;2023-03-21T11:16:18;99601.22;;;14.55;78.08
51321;BME280;38732;49.556;6.286;2023-03-21T11:18:51;99615.59;;;14.12;77.60
51321;BME280;38732;49.556;6.286;2023-03-21T11:21:19;99604.00;;;14.39;77.45
51321;BME280;38732;49.556;6.286;2023-03-21T11:23:49;99612.53;;;14.51;78.01
51321;BME280;38732;49.556;6.286;2023-03-21T11:26:20;99601.28;;;14.49;77.09
51321;BME280;38732;49.556;6.286;2023-03-21T11:28:48;99594.34;;;14.51;75.60
51321;BME280;38732;49.556;6.286;2023-03-21T11:31:17;99594.41;;;14.46;75.20
51321;BME280;38732;49.556;6.286;2023-03-21T11:33:55;99601.13;;;14.62;73.98
51321;BME280;38732;49.556;6.286;2023-03-21T11:36:30;99593.31;;;14.64;74.50
51321;BME280;38732;49.556;6.286;2023-03-21T11:39:14;99574.72;;;14.90;72.02
51321;BME280;38732;49.556;6.286;2023-03-21T11:41:46;99577.41;;;14.84;72.31
51321;BME280;38732;49.556;6.286;2023-03-21T11:44:31;99566.50;;;15.16;73.47
51321;BME280;38732;49.556;6.286;2023-03-21T11:47:00;99560.03;;;15.39;71.62
51321;BME280;38732;49.556;6.286;2023-03-21T11:49:29;99559.03;;;15.46;72.65
51321;BME280;38732;49.556;6.286;2023-03-21T11:52:15;99545.34;;;15.83;70.46
51321;BME280;38732;49.556;6.286;2023-03-21T11:55:07;99509.28;;;16.05;68.24
51321;BME280;38732;49.556;6.286;2023-03-21T12:00:28;99479.63;;;14.19;76.48
51321;BME280;38732;49.556;6.286;2023-03-21T12:03:29;99476.53;;;15.06;71.36
51321;BME280;38732;49.556;6.286;2023-03-21T12:06:14;99494.19;;;15.35;70.08
51321;BME280;38732;49.556;6.286;2023-03-21T12:08:56;99481.81;;;15.48;68.95
51321;BME280;38732;49.556;6.286;2023-03-21T12:14:41;99483.03;;;15.75;68.50
51321;BME280;38732;49.556;6.286;2023-03-21T12:20:38;99486.38;;;15.80;67.20
51321;BME280;38732;49.556;6.286;2023-03-21T12:23:38;99500.81;;;15.95;66.69
51321;BME280;38732;49.556;6.286;2023-03-21T12:26:13;99525.94;;;15.98;67.86
51321;BME280;38732;49.556;6.286;2023-03-21T12:32:19;99545.63;;;14.66;72.78
51321;BME280;38732;49.556;6.286;2023-03-21T12:37:48;99535.25;;;14.01;78.14
51321;BME280;38732;49.556;6.286;2023-03-21T12:45:45;99517.44;;;14.96;74.66
51321;BME280;38732;49.556;6.286;2023-03-21T12:48:40;99513.34;;;14.80;75.52
51321;BME280;38732;49.556;6.286;2023-03-21T12:51:17;99508.72;;;14.43;78.77
51321;BME280;38732;49.556;6.286;2023-03-21T12:54:00;99482.06;;;15.34;69.74
51321;BME280;38732;49.556;6.286;2023-03-21T12:56:42;99527.34;;;15.22;70.72
51321;BME280;38732;49.556;6.286;2023-03-21T13:09:51;99554.63;;;13.76;82.94
51321;BME280;38732;49.556;6.286;2023-03-21T13:12:39;99554.66;;;14.41;78.63
51321;BME280;38732;49.556;6.286;2023-03-21T13:18:36;99538.22;;;14.98;76.14
51321;BME280;38732;49.556;6.286;2023-03-21T13:21:14;99537.53;;;14.85;77.01
51321;BME280;38732;49.556;6.286;2023-03-21T13:23:58;99538.63;;;13.35;83.78
51321;BME280;38732;49.556;6.286;2023-03-21T13:26:32;99543.25;;;13.85;80.50
51321;BME280;38732;49.556;6.286;2023-03-21T13:29:01;99546.03;;;13.71;81.11
51321;BME280;38732;49.556;6.286;2023-03-21T13:31:29;99542.31;;;13.08;87.37
51321;BME280;38732;49.556;6.286;2023-03-21T13:33:58;99540.34;;;14.08;80.61
51321;BME280;38732;49.556;6.286;2023-03-21T13:36:28;99525.91;;;14.53;76.06
51321;BME280;38732;49.556;6.286;2023-03-21T13:39:02;99510.84;;;14.15;80.43
51321;BME280;38732;49.556;6.286;2023-03-21T13:41:34;99503.94;;;14.12;76.45
51321;BME280;38732;49.556;6.286;2023-03-21T13:46:52;99506.41;;;14.23;73.29
51321;BME280;38732;49.556;6.286;2023-03-21T13:49:34;99506.50;;;15.25;70.06
51321;BME280;38732;49.556;6.286;2023-03-21T13:57:06;99498.56;;;15.78;68.49
51321;BME280;38732;49.556;6.286;2023-03-21T13:59:38;99493.16;;;15.87;65.20
51321;BME280;38732;49.556;6.286;2023-03-21T14:02:31;99487.44;;;15.68;69.41
51321;BME280;38732;49.556;6.286;2023-03-21T14:05:06;99477.09;;;16.07;66.80
51321;BME280;38732;49.556;6.286;2023-03-21T14:07:40;99460.41;;;16.52;65.16
51321;BME280;38732;49.556;6.286;2023-03-21T14:10:22;99448.56;;;16.40;64.65
51321;BME280;38732;49.556;6.286;2023-03-21T14:12:52;99447.88;;;17.02;61.67
51321;BME280;38732;49.556;6.286;2023-03-21T14:15:41;99451.16;;;16.76;61.66
51321;BME280;38732;49.556;6.286;2023-03-21T14:18:15;99450.66;;;16.24;64.48
51321;BME280;38732;49.556;6.286;2023-03-21T14:20:43;99456.63;;;16.65;64.01
51321;BME280;38732;49.556;6.286;2023-03-21T14:23:14;99451.03;;;16.07;65.28
51321;BME280;38732;49.556;6.286;2023-03-21T14:25:43;99449.56;;;16.34;66.19
51321;BME280;38732;49.556;6.286;2023-03-21T14:28:21;99443.56;;;15.92;66.17
51321;BME280;38732;49.556;6.286;2023-03-21T14:30:55;99452.94;;;15.60;67.35
51321;BME280;38732;49.556;6.286;2023-03-21T14:33:37;99446.78;;;14.73;70.00
51321;BME280;38732;49.556;6.286;2023-03-21T14:36:11;99443.94;;;14.86;71.95